sensor_id;sensor_type;location;lat;lon;timestamp;P1;durP1;ratioP1;P2;durP2;ratioP2
27365;SDS011;14837;57.148;-2.144;2023-02-01T00:02:10;8.93;;;2.60;;
27365;SDS011;14837;57.148;-2.144;2023-02-01T00:04:37;10.25;;;6.22;;
27365;SDS011;14837;57.148;-2.144;2023-02-01T00:07:03;5.55;;;2.22;;
27365;SDS011;14837;57.148;-2.144;2023-02-01T00:09:30;4.40;;;2.13;;
27365;SDS011;14837;57.148;-2.144;2023-02-01T00:11:56;6.05;;;1.98;;
27365;SDS011;14837;57.148;-2.144;2023-02-01T00:14:25;3.90;;;1.98;;
27365;SDS011;14837;57.148;-2.144;2023-02-01T00:16:52;5.22;;;2.35;;
27365;SDS011;14837;57.148;-2.144;2023-02-01T00:19:18;4.85;;;1.48;;
27365;SDS011;14837;57.148;-2.144;2023-02-01T00:21:45;6.28;;;2.22;;
27365;SDS011;14837;57.148;-2.144;2023-02-01T00:24:11;6.15;;;3.47;;
27365;SDS011;14837;57.148;-2.144;2023-02-01T00:26:39;4.78;;;2.55;;
27365;SDS011;14837;57.148;-2.144;2023-02-01T00:29:07;5.38;;;1.65;;
27365;SDS011;14837;57.148;-2.144;2023-02-01T00:31:35;6.45;;;2.17;;
27365;SDS011;14837;57.148;-2.144;2023-02-01T00:34:02;6.38;;;1.60;;
27365;SDS011;14837;57.148;-2.144;2023-02-01T00:36:28;8.68;;;2.92;;
27365;SDS011;14837;57.148;-2.144;2023-02-01T00:38:56;2.40;;;1.13;;
27365;SDS011;14837;57.148;-2.144;2023-02-01T00:41:22;8.02;;;2.22;;
27365;SDS011;14837;57.148;-2.144;2023-02-01T00:43:49;3.47;;;1.38;;
27365;SDS011;14837;57.148;-2.144;2023-02-01T00:46:17;2.85;;;2.15;;
27365;SDS011;14837;57.148;-2.144;2023-02-01T00:48:44;3.13;;;1.00;;
27365;SDS011;14837;57.148;-2.144;2023-02-01T00:51:20;2.50;;;1.38;;
27365;SDS011;14837;57.148;-2.144;2023-02-01T00:53:47;2.03;;;1.00;;
27365;SDS011;14837;57.148;-2.144;2023-02-01T00:56:14;4.25;;;1.45;;
27365;SDS011;14837;57.148;-2.144;2023-02-01T00:58:40;3.78;;;0.90;;
27365;SDS011;14837;57.148;-2.144;2023-02-01T01:03:38;2.88;;;1.00;;
27365;SDS011;14837;57.148;-2.144;2023-02-01T01:06:06;2.05;;;1.10;;
27365;SDS011;14837;57.148;-2.144;2023-02-01T01:08:33;5.47;;;0.90;;
27365;SDS011;14837;57.148;-2.144;2023-02-01T01:11:03;3.15;;;1.15;;
27365;SDS011;14837;57.148;-2.144;2023-02-01T01:13:30;4.55;;;0.93;;
27365;SDS011;14837;57.148;-2.144;2023-02-01T01:15:59;5.10;;;0.85;;
27365;SDS011;14837;57.148;-2.144;2023-02-01T01:18:28;2.17;;;0.80;;
27365;SDS011;14837;57.148;-2.144;2023-02-01T01:20:54;7.18;;;1.30;;
27365;SDS011;14837;57.148;-2.144;2023-02-01T01:23:21;3.60;;;1.38;;
27365;SDS011;14837;57.148;-2.144;2023-02-01T01:25:47;5.88;;;1.58;;
27365;SDS011;14837;57.148;-2.144;2023-02-01T01:28:14;3.78;;;1.27;;
27365;SDS011;14837;57.148;-2.144;2023-02-01T01:30:40;3.42;;;1.48;;
27365;SDS011;14837;57.148;-2.144;2023-02-01T01:33:07;4.65;;;1.17;;
27365;SDS011;14837;57.148;-2.144;2023-02-01T01:35:34;6.03;;;1.48;;
27365;SDS011;14837;57.148;-2.144;2023-02-01T01:38:01;6.03;;;1.23;;
27365;SDS011;14837;57.148;-2.144;2023-02-01T01:40:28;6.57;;;1.60;;
27365;SDS011;14837;57.148;-2.144;2023-02-01T01:42:57;3.78;;;1.40;;
27365;SDS011;14837;57.148;-2.144;2023-02-01T01:45:27;4.88;;;1.50;;
27365;SDS011;14837;57.148;-2.144;2023-02-01T01:50:51;4.05;;;1.27;;
27365;SDS011;14837;57.148;-2.144;2023-02-01T01:53:22;3.38;;;1.55;;
27365;SDS011;14837;57.148;-2.144;2023-02-01T01:55:50;4.35;;;1.80;;
27365;SDS011;14837;57.148;-2.144;2023-02-01T01:58:18;10.80;;;1.60;;
27365;SDS011;14837;57.148;-2.144;2023-02-01T02:00:45;7.65;;;1.63;;
27365;SDS011;14837;57.148;-2.144;2023-02-01T02:03:22;3.67;;;1.60;;
27365;SDS011;14837;57.148;-2.144;2023-02-01T02:05:50;8.02;;;1.80;;
27365;SDS011;14837;57.148;-2.144;2023-02-01T02:08:18;10.93;;;2.15;;
27365;SDS011;14837;57.148;-2.144;2023-02-01T02:10:48;4.13;;;1.52;;
27365;SDS011;14837;57.148;-2.144;2023-02-01T02:13:27;7.50;;;1.67;;
27365;SDS011;14837;57.148;-2.144;2023-02-01T02:23:45;2.60;;;0.80;;
27365;SDS011;14837;57.148;-2.144;2023-02-01T02:26:32;1.13;;;0.47;;
27365;SDS011;14837;57.148;-2.144;2023-02-01T02:29:07;4.22;;;0.80;;
27365;SDS011;14837;57.148;-2.144;2023-02-01T02:36:47;3.08;;;0.50;;
27365;SDS011;14837;57.148;-2.144;2023-02-01T02:39:22;2.35;;;0.57;;
27365;SDS011;14837;57.148;-2.144;2023-02-01T02:44:59;0.90;;;0.40;;
27365;SDS011;14837;57.148;-2.144;2023-02-01T02:50:38;7.07;;;1.10;;
27365;SDS011;14837;57.148;-2.144;2023-02-01T02:53:34;5.35;;;1.10;;
27365;SDS011;14837;57.148;-2.144;2023-02-01T02:56:21;4.32;;;1.40;;
27365;SDS011;14837;57.148;-2.144;2023-02-01T02:59:09;2.78;;;1.13;;
27365;SDS011;14837;57.148;-2.144;2023-02-01T03:01:56;3.63;;;1.15;;
27365;SDS011;14837;57.148;-2.144;2023-02-01T03:04:41;3.42;;;1.13;;
27365;SDS011;14837;57.148;-2.144;2023-02-01T03:10:05;5.55;;;0.90;;
27365;SDS011;14837;57.148;-2.144;2023-02-01T03:12:34;4.47;;;1.50;;
27365;SDS011;14837;57.148;-2.144;2023-02-01T03:16:08;2.28;;;1.17;;
27365;SDS011;14837;57.148;-2.144;2023-02-01T03:18:13;7.07;;;1.63;;
27365;SDS011;14837;57.148;-2.144;2023-02-01T03:20:44;2.65;;;1.40;;
27365;SDS011;14837;57.148;-2.144;2023-02-01T03:23:13;4.25;;;0.82;;
27365;SDS011;14837;57.148;-2.144;2023-02-01T03:25:42;2.75;;;0.77;;
27365;SDS011;14837;57.148;-2.144;2023-02-01T03:28:08;1.58;;;0.57;;
27365;SDS011;14837;57.148;-2.144;2023-02-01T03:30:37;4.57;;;1.67;;
27365;SDS011;14837;57.148;-2.144;2023-02-01T03:33:05;2.75;;;0.57;;
27365;SDS011;14837;57.148;-2.144;2023-02-01T03:35:47;3.97;;;0.77;;
27365;SDS011;14837;57.148;-2.144;2023-02-01T03:38:20;3.65;;;0.95;;
27365;SDS011;14837;57.148;-2.144;2023-02-01T03:40:51;3.03;;;0.60;;
27365;SDS011;14837;57.148;-2.144;2023-02-01T03:43:18;3.92;;;0.90;;
27365;SDS011;14837;57.148;-2.144;2023-02-01T03:45:47;1.40;;;1.05;;
27365;SDS011;14837;57.148;-2.144;2023-02-01T03:48:16;3.72;;;0.68;;
27365;SDS011;14837;57.148;-2.144;2023-02-01T03:50:44;2.67;;;0.60;;
27365;SDS011;14837;57.148;-2.144;2023-02-01T03:53:14;2.03;;;0.50;;
27365;SDS011;14837;57.148;-2.144;2023-02-01T03:55:42;1.80;;;0.60;;
27365;SDS011;14837;57.148;-2.144;2023-02-01T03:58:11;4.00;;;0.70;;
27365;SDS011;14837;57.148;-2.144;2023-02-01T04:00:39;2.80;;;0.75;;
27365;SDS011;14837;57.148;-2.144;2023-02-01T04:03:06;3.80;;;0.70;;
27365;SDS011;14837;57.148;-2.144;2023-02-01T04:05:33;0.88;;;0.60;;
27365;SDS011;14837;57.148;-2.144;2023-02-01T04:07:59;0.85;;;0.43;;
27365;SDS011;14837;57.148;-2.144;2023-02-01T04:10:26;1.75;;;0.60;;
27365;SDS011;14837;57.148;-2.144;2023-02-01T04:12:53;3.00;;;0.63;;
27365;SDS011;14837;57.148;-2.144;2023-02-01T04:15:19;2.15;;;0.52;;
27365;SDS011;14837;57.148;-2.144;2023-02-01T04:17:46;0.50;;;0.50;;
27365;SDS011;14837;57.148;-2.144;2023-02-01T04:20:12;0.88;;;0.50;;
27365;SDS011;14837;57.148;-2.144;2023-02-01T04:22:39;2.10;;;0.43;;
27365;SDS011;14837;57.148;-2.144;2023-02-01T04:25:05;1.42;;;0.50;;
27365;SDS011;14837;57.148;-2.144;2023-02-01T04:27:32;3.28;;;0.50;;
27365;SDS011;14837;57.148;-2.144;2023-02-01T04:29:59;1.02;;;0.45;;
27365;SDS011;14837;57.148;-2.144;2023-02-01T04:32:25;2.13;;;0.68;;
27365;SDS011;14837;57.148;-2.144;2023-02-01T04:34:52;1.75;;;0.55;;
27365;SDS011;14837;57.148;-2.144;2023-02-01T04:37:18;1.08;;;0.40;;
27365;SDS011;14837;57.148;-2.144;2023-02-01T04:39:45;2.33;;;0.68;;
27365;SDS011;14837;57.148;-2.144;2023-02-01T04:42:11;2.10;;;0.47;;
27365;SDS011;14837;57.148;-2.144;2023-02-01T04:44:38;4.35;;;0.80;;
27365;SDS011;14837;57.148;-2.144;2023-02-01T04:47:08;3.22;;;0.60;;
27365;SDS011;14837;57.148;-2.144;2023-02-01T04:49:35;0.70;;;0.45;;
27365;SDS011;14837;57.148;-2.144;2023-02-01T04:52:02;0.50;;;0.30;;
27365;SDS011;14837;57.148;-2.144;2023-02-01T04:54:28;0.52;;;0.30;;
27365;SDS011;14837;57.148;-2.144;2023-02-01T04:56:55;0.40;;;0.30;;
27365;SDS011;14837;57.148;-2.144;2023-02-01T04:59:21;1.35;;;0.50;;
27365;SDS011;14837;57.148;-2.144;2023-02-01T05:01:48;1.05;;;0.50;;
27365;SDS011;14837;57.148;-2.144;2023-02-01T05:04:14;4.15;;;0.60;;
27365;SDS011;14837;57.148;-2.144;2023-02-01T05:06:41;2.25;;;0.68;;
27365;SDS011;14837;57.148;-2.144;2023-02-01T05:09:07;1.05;;;0.95;;
27365;SDS011;14837;57.148;-2.144;2023-02-01T05:11:34;6.28;;;0.88;;
27365;SDS011;14837;57.148;-2.144;2023-02-01T05:14:19;4.43;;;1.25;;
27365;SDS011;14837;57.148;-2.144;2023-02-01T05:16:46;4.72;;;0.90;;
27365;SDS011;14837;57.148;-2.144;2023-02-01T05:19:12;4.35;;;1.30;;
27365;SDS011;14837;57.148;-2.144;2023-02-01T05:21:39;8.18;;;1.48;;
27365;SDS011;14837;57.148;-2.144;2023-02-01T05:24:06;5.22;;;1.27;;
27365;SDS011;14837;57.148;-2.144;2023-02-01T05:26:36;4.00;;;1.42;;
27365;SDS011;14837;57.148;-2.144;2023-02-01T05:29:03;5.05;;;1.40;;
27365;SDS011;14837;57.148;-2.144;2023-02-01T05:31:30;2.58;;;0.90;;
27365;SDS011;14837;57.148;-2.144;2023-02-01T05:33:57;4.63;;;1.63;;
27365;SDS011;14837;57.148;-2.144;2023-02-01T05:36:24;4.25;;;1.50;;
27365;SDS011;14837;57.148;-2.144;2023-02-01T05:38:50;6.90;;;1.20;;
27365;SDS011;14837;57.148;-2.144;2023-02-01T05:41:17;3.97;;;1.13;;
27365;SDS011;14837;57.148;-2.144;2023-02-01T05:43:43;2.83;;;1.02;;
27365;SDS011;14837;57.148;-2.144;2023-02-01T05:46:10;7.90;;;1.83;;
27365;SDS011;14837;57.148;-2.144;2023-02-01T05:48:39;12.60;;;2.10;;
27365;SDS011;14837;57.148;-2.144;2023-02-01T05:51:08;5.55;;;1.42;;
27365;SDS011;14837;57.148;-2.144;2023-02-01T05:53:34;7.38;;;1.90;;
27365;SDS011;14837;57.148;-2.144;2023-02-01T05:56:01;2.95;;;1.48;;
27365;SDS011;14837;57.148;-2.144;2023-02-01T05:58:28;7.03;;;1.50;;
27365;SDS011;14837;57.148;-2.144;2023-02-01T06:01:01;8.30;;;1.95;;
27365;SDS011;14837;57.148;-2.144;2023-02-01T06:03:27;8.60;;;1.77;;
27365;SDS011;14837;57.148;-2.144;2023-02-01T06:05:54;8.07;;;2.17;;
27365;SDS011;14837;57.148;-2.144;2023-02-01T06:08:21;6.82;;;1.17;;
27365;SDS011;14837;57.148;-2.144;2023-02-01T06:10:47;8.27;;;1.67;;
27365;SDS011;14837;57.148;-2.144;2023-02-01T06:13:14;12.75;;;1.77;;
27365;SDS011;14837;57.148;-2.144;2023-02-01T06:15:40;13.85;;;2.35;;
27365;SDS011;14837;57.148;-2.144;2023-02-01T06:18:08;7.40;;;1.98;;
27365;SDS011;14837;57.148;-2.144;2023-02-01T06:20:35;7.90;;;3.13;;
27365;SDS011;14837;57.148;-2.144;2023-02-01T06:23:01;11.63;;;2.67;;
27365;SDS011;14837;57.148;-2.144;2023-02-01T06:25:28;7.53;;;2.72;;
27365;SDS011;14837;57.148;-2.144;2023-02-01T06:27:54;7.32;;;2.42;;
27365;SDS011;14837;57.148;-2.144;2023-02-01T06:30:21;8.65;;;2.75;;
27365;SDS011;14837;57.148;-2.144;2023-02-01T06:32:50;11.68;;;2.50;;
27365;SDS011;14837;57.148;-2.144;2023-02-01T06:35:19;9.75;;;3.25;;
27365;SDS011;14837;57.148;-2.144;2023-02-01T06:37:46;12.15;;;1.80;;
27365;SDS011;14837;57.148;-2.144;2023-02-01T06:40:13;9.40;;;2.15;;
27365;SDS011;14837;57.148;-2.144;2023-02-01T06:42:39;13.02;;;2.53;;
27365;SDS011;14837;57.148;-2.144;2023-02-01T06:45:06;10.10;;;2.47;;
27365;SDS011;14837;57.148;-2.144;2023-02-01T06:47:33;15.40;;;3.15;;
27365;SDS011;14837;57.148;-2.144;2023-02-01T06:49:59;9.35;;;2.17;;
27365;SDS011;14837;57.148;-2.144;2023-02-01T06:52:26;9.57;;;2.28;;
27365;SDS011;14837;57.148;-2.144;2023-02-01T06:54:52;9.10;;;2.63;;
27365;SDS011;14837;57.148;-2.144;2023-02-01T06:57:19;8.68;;;2.42;;
27365;SDS011;14837;57.148;-2.144;2023-02-01T06:59:45;5.95;;;1.95;;
27365;SDS011;14837;57.148;-2.144;2023-02-01T07:02:12;13.20;;;2.63;;
27365;SDS011;14837;57.148;-2.144;2023-02-01T07:04:38;13.57;;;2.95;;
27365;SDS011;14837;57.148;-2.144;2023-02-01T07:07:05;11.80;;;2.55;;
27365;SDS011;14837;57.148;-2.144;2023-02-01T07:09:32;10.23;;;2.17;;
27365;SDS011;14837;57.148;-2.144;2023-02-01T07:11:58;17.58;;;2.80;;
27365;SDS011;14837;57.148;-2.144;2023-02-01T07:14:25;10.88;;;3.45;;
27365;SDS011;14837;57.148;-2.144;2023-02-01T07:16:51;7.65;;;2.28;;
27365;SDS011;14837;57.148;-2.144;2023-02-01T07:19:18;6.72;;;2.85;;
27365;SDS011;14837;57.148;-2.144;2023-02-01T07:21:44;12.50;;;2.80;;
27365;SDS011;14837;57.148;-2.144;2023-02-01T07:24:10;9.70;;;3.28;;
27365;SDS011;14837;57.148;-2.144;2023-02-01T07:26:37;10.80;;;2.75;;
27365;SDS011;14837;57.148;-2.144;2023-02-01T07:29:04;11.02;;;3.80;;
27365;SDS011;14837;57.148;-2.144;2023-02-01T07:31:30;9.82;;;3.13;;
27365;SDS011;14837;57.148;-2.144;2023-02-01T07:33:57;10.48;;;2.03;;
27365;SDS011;14837;57.148;-2.144;2023-02-01T07:36:24;12.32;;;2.55;;
27365;SDS011;14837;57.148;-2.144;2023-02-01T07:38:51;11.65;;;2.88;;
27365;SDS011;14837;57.148;-2.144;2023-02-01T07:41:21;11.73;;;2.72;;
27365;SDS011;14837;57.148;-2.144;2023-02-01T07:43:48;15.75;;;3.05;;
27365;SDS011;14837;57.148;-2.144;2023-02-01T07:46:16;8.18;;;2.55;;
27365;SDS011;14837;57.148;-2.144;2023-02-01T07:48:43;11.27;;;2.45;;
27365;SDS011;14837;57.148;-2.144;2023-02-01T07:51:11;11.85;;;2.85;;
27365;SDS011;14837;57.148;-2.144;2023-02-01T07:53:38;16.30;;;2.67;;
27365;SDS011;14837;57.148;-2.144;2023-02-01T07:56:09;7.60;;;2.22;;
27365;SDS011;14837;57.148;-2.144;2023-02-01T07:58:36;7.00;;;1.98;;
27365;SDS011;14837;57.148;-2.144;2023-02-01T08:01:03;5.60;;;2.10;;
27365;SDS011;14837;57.148;-2.144;2023-02-01T08:03:56;10.02;;;1.90;;
27365;SDS011;14837;57.148;-2.144;2023-02-01T08:06:23;11.45;;;2.42;;
27365;SDS011;14837;57.148;-2.144;2023-02-01T08:08:51;6.15;;;2.38;;
27365;SDS011;14837;57.148;-2.144;2023-02-01T08:11:18;9.07;;;2.38;;
27365;SDS011;14837;57.148;-2.144;2023-02-01T08:13:45;11.45;;;3.03;;
27365;SDS011;14837;57.148;-2.144;2023-02-01T08:16:12;8.07;;;2.10;;
27365;SDS011;14837;57.148;-2.144;2023-02-01T08:18:39;7.97;;;2.10;;
27365;SDS011;14837;57.148;-2.144;2023-02-01T08:21:07;10.93;;;3.78;;
27365;SDS011;14837;57.148;-2.144;2023-02-01T08:23:34;13.80;;;2.95;;
27365;SDS011;14837;57.148;-2.144;2023-02-01T08:26:20;10.10;;;2.15;;
27365;SDS011;14837;57.148;-2.144;2023-02-01T08:28:49;7.28;;;2.22;;
27365;SDS011;14837;57.148;-2.144;2023-02-01T08:31:18;6.93;;;2.05;;
27365;SDS011;14837;57.148;-2.144;2023-02-01T08:33:47;8.35;;;2.75;;
27365;SDS011;14837;57.148;-2.144;2023-02-01T08:36:14;13.98;;;2.90;;
27365;SDS011;14837;57.148;-2.144;2023-02-01T08:38:41;13.48;;;2.95;;
27365;SDS011;14837;57.148;-2.144;2023-02-01T08:41:08;13.45;;;3.13;;
27365;SDS011;14837;57.148;-2.144;2023-02-01T08:43:35;8.63;;;2.75;;
27365;SDS011;14837;57.148;-2.144;2023-02-01T08:46:02;8.40;;;2.63;;
27365;SDS011;14837;57.148;-2.144;2023-02-01T08:48:29;14.05;;;3.20;;
27365;SDS011;14837;57.148;-2.144;2023-02-01T08:50:55;14.32;;;3.38;;
27365;SDS011;14837;57.148;-2.144;2023-02-01T08:53:22;8.95;;;2.30;;
27365;SDS011;14837;57.148;-2.144;2023-02-01T08:55:49;15.10;;;2.65;;
27365;SDS011;14837;57.148;-2.144;2023-02-01T08:58:15;6.30;;;2.70;;
27365;SDS011;14837;57.148;-2.144;2023-02-01T09:00:43;6.45;;;2.10;;
27365;SDS011;14837;57.148;-2.144;2023-02-01T09:03:14;12.18;;;2.80;;
27365;SDS011;14837;57.148;-2.144;2023-02-01T09:05:41;13.18;;;2.40;;
27365;SDS011;14837;57.148;-2.144;2023-02-01T09:08:15;5.93;;;1.80;;
27365;SDS011;14837;57.148;-2.144;2023-02-01T09:10:42;10.27;;;2.47;;
27365;SDS011;14837;57.148;-2.144;2023-02-01T09:13:08;12.20;;;2.28;;
27365;SDS011;14837;57.148;-2.144;2023-02-01T09:15:36;6.93;;;2.60;;
27365;SDS011;14837;57.148;-2.144;2023-02-01T09:18:03;10.48;;;2.13;;
27365;SDS011;14837;57.148;-2.144;2023-02-01T09:20:29;9.93;;;2.95;;
27365;SDS011;14837;57.148;-2.144;2023-02-01T09:22:56;6.97;;;2.20;;
27365;SDS011;14837;57.148;-2.144;2023-02-01T09:25:22;13.88;;;2.30;;
27365;SDS011;14837;57.148;-2.144;2023-02-01T09:27:49;18.42;;;2.95;;
27365;SDS011;14837;57.148;-2.144;2023-02-01T09:30:16;7.63;;;2.30;;
27365;SDS011;14837;57.148;-2.144;2023-02-01T09:32:42;6.80;;;3.97;;
27365;SDS011;14837;57.148;-2.144;2023-02-01T09:35:09;11.95;;;2.70;;
27365;SDS011;14837;57.148;-2.144;2023-02-01T09:37:35;11.70;;;3.85;;
27365;SDS011;14837;57.148;-2.144;2023-02-01T09:40:03;8.70;;;2.10;;
27365;SDS011;14837;57.148;-2.144;2023-02-01T09:42:36;15.20;;;3.35;;
27365;SDS011;14837;57.148;-2.144;2023-02-01T09:47:49;10.57;;;2.88;;
27365;SDS011;14837;57.148;-2.144;2023-02-01T09:50:19;9.18;;;2.45;;
27365;SDS011;14837;57.148;-2.144;2023-02-01T09:55:36;10.63;;;2.08;;
27365;SDS011;14837;57.148;-2.144;2023-02-01T09:58:14;6.60;;;2.10;;
27365;SDS011;14837;57.148;-2.144;2023-02-01T10:00:45;6.82;;;3.33;;
27365;SDS011;14837;57.148;-2.144;2023-02-01T10:03:13;5.40;;;1.80;;
27365;SDS011;14837;57.148;-2.144;2023-02-01T10:08:19;13.02;;;3.17;;
27365;SDS011;14837;57.148;-2.144;2023-02-01T10:10:49;5.85;;;2.03;;
27365;SDS011;14837;57.148;-2.144;2023-02-01T10:18:18;9.05;;;2.33;;
27365;SDS011;14837;57.148;-2.144;2023-02-01T10:28:26;7.25;;;2.50;;
27365;SDS011;14837;57.148;-2.144;2023-02-01T10:30:56;9.30;;;2.65;;
27365;SDS011;14837;57.148;-2.144;2023-02-01T10:33:24;11.00;;;2.13;;
27365;SDS011;14837;57.148;-2.144;2023-02-01T10:35:52;7.03;;;2.60;;
27365;SDS011;14837;57.148;-2.144;2023-02-01T10:38:29;8.23;;;2.33;;
27365;SDS011;14837;57.148;-2.144;2023-02-01T10:41:01;11.23;;;2.47;;
27365;SDS011;14837;57.148;-2.144;2023-02-01T10:43:28;9.32;;;2.58;;
27365;SDS011;14837;57.148;-2.144;2023-02-01T10:45:54;8.75;;;2.33;;
27365;SDS011;14837;57.148;-2.144;2023-02-01T10:48:21;6.95;;;2.40;;
27365;SDS011;14837;57.148;-2.144;2023-02-01T10:50:51;8.93;;;2.42;;
27365;SDS011;14837;57.148;-2.144;2023-02-01T10:53:21;12.45;;;2.55;;
27365;SDS011;14837;57.148;-2.144;2023-02-01T10:55:52;9.88;;;1.92;;
27365;SDS011;14837;57.148;-2.144;2023-02-01T10:58:28;7.72;;;2.63;;
27365;SDS011;14837;57.148;-2.144;2023-02-01T11:01:02;6.25;;;2.30;;
27365;SDS011;14837;57.148;-2.144;2023-02-01T11:06:28;3.88;;;1.60;;
27365;SDS011;14837;57.148;-2.144;2023-02-01T11:08:56;6.95;;;1.42;;
27365;SDS011;14837;57.148;-2.144;2023-02-01T11:11:23;8.15;;;1.60;;
27365;SDS011;14837;57.148;-2.144;2023-02-01T11:13:54;8.30;;;2.03;;
27365;SDS011;14837;57.148;-2.144;2023-02-01T11:16:20;4.88;;;1.83;;
27365;SDS011;14837;57.148;-2.144;2023-02-01T11:18:52;5.07;;;1.65;;
27365;SDS011;14837;57.148;-2.144;2023-02-01T11:21:19;8.70;;;1.73;;
27365;SDS011;14837;57.148;-2.144;2023-02-01T11:23:46;8.77;;;2.00;;
27365;SDS011;14837;57.148;-2.144;2023-02-01T11:26:20;10.50;;;1.75;;
27365;SDS011;14837;57.148;-2.144;2023-02-01T11:29:33;7.05;;;1.75;;
27365;SDS011;14837;57.148;-2.144;2023-02-01T11:31:39;7.78;;;1.60;;
27365;SDS011;14837;57.148;-2.144;2023-02-01T11:36:35;10.68;;;1.90;;
27365;SDS011;14837;57.148;-2.144;2023-02-01T11:41:40;8.93;;;1.75;;
27365;SDS011;14837;57.148;-2.144;2023-02-01T11:44:20;8.27;;;1.52;;
27365;SDS011;14837;57.148;-2.144;2023-02-01T11:46:48;4.82;;;1.30;;
27365;SDS011;14837;57.148;-2.144;2023-02-01T11:51:51;4.07;;;1.80;;
27365;SDS011;14837;57.148;-2.144;2023-02-01T11:56:54;8.05;;;1.48;;
27365;SDS011;14837;57.148;-2.144;2023-02-01T12:12:17;7.82;;;2.28;;
27365;SDS011;14837;57.148;-2.144;2023-02-01T12:19:45;9.05;;;2.20;;
27365;SDS011;14837;57.148;-2.144;2023-02-01T12:27:37;11.48;;;1.92;;
27365;SDS011;14837;57.148;-2.144;2023-02-01T12:38:14;14.57;;;2.42;;
27365;SDS011;14837;57.148;-2.144;2023-02-01T12:43:17;4.57;;;1.58;;
27365;SDS011;14837;57.148;-2.144;2023-02-01T12:45:52;9.73;;;2.95;;
27365;SDS011;14837;57.148;-2.144;2023-02-01T12:50:54;8.15;;;1.90;;
27365;SDS011;14837;57.148;-2.144;2023-02-01T12:53:35;7.68;;;2.33;;
27365;SDS011;14837;57.148;-2.144;2023-02-01T12:56:06;6.50;;;2.08;;
27365;SDS011;14837;57.148;-2.144;2023-02-01T12:58:46;7.47;;;2.25;;
27365;SDS011;14837;57.148;-2.144;2023-02-01T13:01:28;8.55;;;2.13;;
27365;SDS011;14837;57.148;-2.144;2023-02-01T13:04:02;9.52;;;1.90;;
27365;SDS011;14837;57.148;-2.144;2023-02-01T13:06:42;9.80;;;2.78;;
27365;SDS011;14837;57.148;-2.144;2023-02-01T13:11:43;7.45;;;2.30;;
27365;SDS011;14837;57.148;-2.144;2023-02-01T13:16:44;6.72;;;1.73;;
27365;SDS011;14837;57.148;-2.144;2023-02-01T13:19:18;8.20;;;1.95;;
27365;SDS011;14837;57.148;-2.144;2023-02-01T13:21:48;9.70;;;2.25;;
27365;SDS011;14837;57.148;-2.144;2023-02-01T13:26:46;8.90;;;2.65;;
27365;SDS011;14837;57.148;-2.144;2023-02-01T13:29:12;4.82;;;1.90;;
27365;SDS011;14837;57.148;-2.144;2023-02-01T13:39:14;10.27;;;3.17;;
27365;SDS011;14837;57.148;-2.144;2023-02-01T13:41:52;11.10;;;2.10;;
27365;SDS011;14837;57.148;-2.144;2023-02-01T13:44:24;7.88;;;2.08;;
27365;SDS011;14837;57.148;-2.144;2023-02-01T13:46:52;9.32;;;2.72;;
27365;SDS011;14837;57.148;-2.144;2023-02-01T13:49:22;6.65;;;1.88;;
27365;SDS011;14837;57.148;-2.144;2023-02-01T13:51:51;6.20;;;1.92;;
27365;SDS011;14837;57.148;-2.144;2023-02-01T13:54:28;7.22;;;1.77;;
27365;SDS011;14837;57.148;-2.144;2023-02-01T13:56:55;11.90;;;2.25;;
27365;SDS011;14837;57.148;-2.144;2023-02-01T14:04:59;5.63;;;1.80;;
27365;SDS011;14837;57.148;-2.144;2023-02-01T14:07:26;8.13;;;2.55;;
27365;SDS011;14837;57.148;-2.144;2023-02-01T14:09:53;7.15;;;2.38;;
27365;SDS011;14837;57.148;-2.144;2023-02-01T14:15:22;7.68;;;1.88;;
27365;SDS011;14837;57.148;-2.144;2023-02-01T14:17:50;10.70;;;2.85;;
27365;SDS011;14837;57.148;-2.144;2023-02-01T14:23:02;7.47;;;1.67;;
27365;SDS011;14837;57.148;-2.144;2023-02-01T14:25:32;9.40;;;2.58;;
27365;SDS011;14837;57.148;-2.144;2023-02-01T14:27:59;7.82;;;2.05;;
27365;SDS011;14837;57.148;-2.144;2023-02-01T14:30:27;7.53;;;2.00;;
27365;SDS011;14837;57.148;-2.144;2023-02-01T14:32:53;8.48;;;1.90;;
27365;SDS011;14837;57.148;-2.144;2023-02-01T14:35:21;4.18;;;2.35;;
27365;SDS011;14837;57.148;-2.144;2023-02-01T14:37:52;9.55;;;1.63;;
27365;SDS011;14837;57.148;-2.144;2023-02-01T14:40:20;9.32;;;2.50;;
27365;SDS011;14837;57.148;-2.144;2023-02-01T14:42:50;8.75;;;2.03;;
27365;SDS011;14837;57.148;-2.144;2023-02-01T14:47:54;5.80;;;1.75;;
27365;SDS011;14837;57.148;-2.144;2023-02-01T14:58:04;9.05;;;2.55;;
27365;SDS011;14837;57.148;-2.144;2023-02-01T15:00:31;10.18;;;2.80;;
27365;SDS011;14837;57.148;-2.144;2023-02-01T15:03:43;6.22;;;1.75;;
27365;SDS011;14837;57.148;-2.144;2023-02-01T15:05:54;7.43;;;1.92;;
27365;SDS011;14837;57.148;-2.144;2023-02-01T15:08:23;7.20;;;2.10;;
27365;SDS011;14837;57.148;-2.144;2023-02-01T15:10:51;6.85;;;2.05;;
27365;SDS011;14837;57.148;-2.144;2023-02-01T15:13:22;11.18;;;3.88;;
27365;SDS011;14837;57.148;-2.144;2023-02-01T15:18:34;9.23;;;2.92;;
27365;SDS011;14837;57.148;-2.144;2023-02-01T15:21:01;10.55;;;1.80;;
27365;SDS011;14837;57.148;-2.144;2023-02-01T15:23:48;9.65;;;1.83;;
27365;SDS011;14837;57.148;-2.144;2023-02-01T15:26:26;13.15;;;3.50;;
27365;SDS011;14837;57.148;-2.144;2023-02-01T15:28:53;9.38;;;2.38;;
27365;SDS011;14837;57.148;-2.144;2023-02-01T15:31:36;7.47;;;1.70;;
27365;SDS011;14837;57.148;-2.144;2023-02-01T15:34:03;10.00;;;2.40;;
27365;SDS011;14837;57.148;-2.144;2023-02-01T15:36:30;4.82;;;1.50;;
27365;SDS011;14837;57.148;-2.144;2023-02-01T15:41:49;7.60;;;2.10;;
27365;SDS011;14837;57.148;-2.144;2023-02-01T15:47:20;7.35;;;2.53;;
27365;SDS011;14837;57.148;-2.144;2023-02-01T15:49:53;8.95;;;2.20;;
27365;SDS011;14837;57.148;-2.144;2023-02-01T15:52:24;10.57;;;2.92;;
27365;SDS011;14837;57.148;-2.144;2023-02-01T15:54:55;8.98;;;2.42;;
27365;SDS011;14837;57.148;-2.144;2023-02-01T15:57:26;12.07;;;2.42;;
27365;SDS011;14837;57.148;-2.144;2023-02-01T15:59:57;9.57;;;2.50;;
27365;SDS011;14837;57.148;-2.144;2023-02-01T16:04:51;6.55;;;2.55;;
27365;SDS011;14837;57.148;-2.144;2023-02-01T16:07:22;11.65;;;2.70;;
27365;SDS011;14837;57.148;-2.144;2023-02-01T16:09:53;11.52;;;2.40;;
27365;SDS011;14837;57.148;-2.144;2023-02-01T16:12:33;9.00;;;1.95;;
27365;SDS011;14837;57.148;-2.144;2023-02-01T16:15:02;6.85;;;2.38;;
27365;SDS011;14837;57.148;-2.144;2023-02-01T16:17:28;9.07;;;2.17;;
27365;SDS011;14837;57.148;-2.144;2023-02-01T16:19:55;11.10;;;2.30;;
27365;SDS011;14837;57.148;-2.144;2023-02-01T16:22:23;9.00;;;2.75;;
27365;SDS011;14837;57.148;-2.144;2023-02-01T16:24:50;5.65;;;2.53;;
27365;SDS011;14837;57.148;-2.144;2023-02-01T16:27:16;12.00;;;3.22;;
27365;SDS011;14837;57.148;-2.144;2023-02-01T16:29:43;17.90;;;3.30;;
27365;SDS011;14837;57.148;-2.144;2023-02-01T16:32:19;8.23;;;2.25;;
27365;SDS011;14837;57.148;-2.144;2023-02-01T16:34:46;10.63;;;2.53;;
27365;SDS011;14837;57.148;-2.144;2023-02-01T16:37:14;10.43;;;2.17;;
27365;SDS011;14837;57.148;-2.144;2023-02-01T16:39:41;11.50;;;2.47;;
27365;SDS011;14837;57.148;-2.144;2023-02-01T16:42:11;9.20;;;2.63;;
27365;SDS011;14837;57.148;-2.144;2023-02-01T16:44:38;10.95;;;2.58;;
27365;SDS011;14837;57.148;-2.144;2023-02-01T16:47:10;7.88;;;2.60;;
27365;SDS011;14837;57.148;-2.144;2023-02-01T16:49:37;13.13;;;3.03;;
27365;SDS011;14837;57.148;-2.144;2023-02-01T16:52:08;7.22;;;2.58;;
27365;SDS011;14837;57.148;-2.144;2023-02-01T16:54:37;6.85;;;1.95;;
27365;SDS011;14837;57.148;-2.144;2023-02-01T16:57:04;8.07;;;1.88;;
27365;SDS011;14837;57.148;-2.144;2023-02-01T16:59:30;9.48;;;2.08;;
27365;SDS011;14837;57.148;-2.144;2023-02-01T17:01:57;14.93;;;2.47;;
27365;SDS011;14837;57.148;-2.144;2023-02-01T17:04:23;8.18;;;2.20;;
27365;SDS011;14837;57.148;-2.144;2023-02-01T17:06:50;8.75;;;2.10;;
27365;SDS011;14837;57.148;-2.144;2023-02-01T17:09:17;11.63;;;2.80;;